Time;durP1;ratioP1;P1;durP2;ratioP2;P2;SDS_P1;SDS_P2;PMS_P1;PMS_P2;Temp;Humidity;BMP_temperature;BMP_pressure;BME280_temperature;BME280_humidity;BME280_pressure;Samples;Min_cycle;Max_cycle;Signal;HPM_P1;HPM_P2
2022/05/23 00:01:19;;;;;;;6.20;3.50;;;;;;;16.56;73.61;99568.03;5090516;28;20562;-82
2022/05/23 00:03:44;;;;;;;5.03;3.22;;;;;;;16.59;71.42;99572.66;5091916;28;20028;-82
2022/05/23 00:06:12;;;;;;;6.40;3.28;;;;;;;16.65;70.29;99581.91;5092203;28;20039;-82
2022/05/23 00:08:37;;;;;;;5.80;3.33;;;;;;;16.53;72.32;99573.84;5083881;28;20052;-82
2022/05/23 00:11:03;;;;;;;6.50;3.25;;;;;;;16.59;70.55;99572.66;5068526;28;20491;-82
2022/05/23 00:13:28;;;;;;;5.28;3.50;;;;;;;16.55;74.35;99571.31;5091154;28;21719;-82
2022/05/23 00:15:54;;;;;;;4.72;3.28;;;;;;;16.42;74.64;99571.63;5073802;28;20060;-82
2022/05/23 00:18:20;;;;;;;5.63;3.50;;;;;;;16.26;74.90;99569.38;5091540;28;20028;-82
2022/05/23 00:20:45;;;;;;;4.63;3.50;;;;;;;16.14;75.13;99576.06;5099916;28;20536;-82
2022/05/23 00:23:11;;;;;;;6.68;3.63;;;;;;;16.25;74.14;99579.03;5092374;28;20032;-82
2022/05/23 00:25:38;;;;;;;6.47;3.60;;;;;;;16.30;73.79;99573.50;5073172;28;20074;-82
2022/05/23 00:28:03;;;;;;;4.75;3.30;;;;;;;16.19;74.09;99566.97;5104877;28;20040;-82
2022/05/23 00:30:29;;;;;;;7.15;3.40;;;;;;;16.15;74.34;99578.38;5089690;28;20107;-82
2022/05/23 00:35:41;;;;;;;5.28;3.65;;;;;;;16.17;74.43;99573.09;5057289;28;20029;-82
2022/05/23 00:38:08;;;;;;;6.75;3.92;;;;;;;16.15;75.59;99572.78;5088272;28;20067;-82
2022/05/23 00:43:40;;;;;;;4.28;3.13;;;;;;;16.31;73.28;99579.88;5058877;28;20024;-82
2022/05/23 00:46:06;;;;;;;5.68;3.40;;;;;;;16.36;71.37;99586.81;5074449;28;20259;-82
2022/05/23 00:48:31;;;;;;;6.88;3.00;;;;;;;16.37;69.23;99577.94;5094962;28;20024;-82
2022/05/23 00:51:00;;;;;;;4.85;2.97;;;;;;;16.43;68.58;99564.78;5078220;28;20038;-82
2022/05/23 00:53:32;;;;;;;5.32;3.58;;;;;;;16.38;72.00;99564.72;5094276;28;20040;-82
2022/05/23 00:55:58;;;;;;;6.57;3.50;;;;;;;16.21;74.06;99561.69;5089888;28;20391;-82
2022/05/23 00:58:45;;;;;;;4.22;3.83;;;;;;;15.89;76.91;99565.53;5091241;28;20035;-82
2022/05/23 01:01:13;;;;;;;5.13;3.40;;;;;;;15.62;78.34;99558.97;5108004;28;20054;-82
2022/05/23 01:03:39;;;;;;;4.68;3.40;;;;;;;15.68;77.49;99562.66;5070131;28;20505;-82
2022/05/23 01:06:06;;;;;;;4.30;3.60;;;;;;;15.56;77.88;99565.75;5107132;28;20028;-82
2022/05/23 01:08:34;;;;;;;6.00;3.60;;;;;;;15.55;77.80;99562.16;5097854;28;20451;-82
2022/05/23 01:11:00;;;;;;;6.55;4.10;;;;;;;15.50;78.51;99565.63;5091386;28;20117;-82
2022/05/23 01:13:25;;;;;;;5.88;3.45;;;;;;;15.54;78.52;99557.81;5090410;28;20071;-82
2022/05/23 01:15:51;;;;;;;6.88;3.70;;;;;;;15.43;79.44;99552.03;5082672;28;20034;-82
2022/05/23 01:18:18;;;;;;;5.18;3.40;;;;;;;15.33;80.67;99545.75;5088872;28;20502;-82
2022/05/23 01:20:45;;;;;;;6.68;3.20;;;;;;;15.34;80.66;99549.31;5093259;28;20054;-82
2022/05/23 01:23:17;;;;;;;4.70;3.78;;;;;;;15.30;80.36;99540.34;5074788;28;20036;-82
2022/05/23 01:25:53;;;;;;;5.88;3.40;;;;;;;15.26;79.95;99531.38;5068854;28;20127;-82
2022/05/23 01:28:33;;;;;;;4.82;3.50;;;;;;;15.21;79.08;99529.25;5073227;28;20036;-82
2022/05/23 01:30:59;;;;;;;5.75;3.45;;;;;;;15.20;77.93;99538.91;5076284;28;20082;-82
2022/05/23 01:33:28;;;;;;;6.28;3.45;;;;;;;15.12;79.65;99540.53;5074783;28;20044;-82
2022/05/23 01:35:57;;;;;;;6.15;3.40;;;;;;;15.06;79.88;99534.06;5110119;28;20450;-82
2022/05/23 01:38:22;;;;;;;6.82;3.78;;;;;;;14.96;79.79;99538.97;5084665;28;20088;-82
2022/05/23 01:40:59;;;;;;;4.93;3.60;;;;;;;14.86;81.45;99543.09;5062198;28;20534;-82
2022/05/23 01:43:26;;;;;;;6.28;3.80;;;;;;;14.82;82.21;99537.69;5078029;28;20709;-82
2022/05/23 01:46:22;;;;;;;6.25;3.90;;;;;;;14.82;82.77;99526.53;5058657;28;20503;-82
2022/05/23 01:49:01;;;;;;;5.40;3.65;;;;;;;14.83;82.05;99533.66;5058759;28;20415;-82
2022/05/23 01:51:28;;;;;;;6.18;3.92;;;;;;;14.75;81.99;99532.47;5038455;28;20036;-82
2022/05/23 01:53:54;;;;;;;6.72;3.88;;;;;;;14.67;83.00;99522.94;5023449;28;20108;-82
2022/05/23 01:56:19;;;;;;;4.97;3.80;;;;;;;14.64;82.86;99525.91;5058235;28;20593;-82
2022/05/23 02:01:36;;;;;;;5.10;4.22;;;;;;;14.58;84.49;99522.22;5061809;28;20024;-82
2022/05/23 02:04:02;;;;;;;6.10;3.85;;;;;;;14.54;84.56;99516.06;5062299;28;20029;-82
2022/05/23 02:06:39;;;;;;;6.00;4.10;;;;;;;14.54;84.64;99516.81;5039512;28;20035;-82
2022/05/23 02:09:12;;;;;;;5.80;4.18;;;;;;;14.62;84.09;99520.78;5059547;28;20400;-82
2022/05/23 02:11:47;;;;;;;6.68;3.70;;;;;;;14.66;84.53;99521.38;5047352;28;20423;-82
2022/05/23 02:14:21;;;;;;;5.55;4.00;;;;;;;14.68;84.23;99513.28;5065958;28;20025;-82
2022/05/23 02:16:46;;;;;;;5.72;3.70;;;;;;;14.75;84.17;99509.38;5068187;28;20392;-82
2022/05/23 02:19:12;;;;;;;5.57;4.10;;;;;;;14.80;84.18;99509.47;5072051;28;20051;-82
2022/05/23 02:21:41;;;;;;;6.93;3.95;;;;;;;14.75;85.36;99512.94;5051339;28;20024;-82
2022/05/23 02:24:07;;;;;;;5.28;3.80;;;;;;;14.73;85.15;99512.63;5048465;28;20086;-82
2022/05/23 02:26:33;;;;;;;5.55;4.20;;;;;;;14.72;85.12;99511.09;5052890;28;20075;-82
2022/05/23 02:29:02;;;;;;;4.70;3.88;;;;;;;14.80;85.81;99511.50;5041841;28;20024;-82
2022/05/23 02:31:30;;;;;;;5.78;4.00;;;;;;;14.87;84.62;99516.72;5049837;28;20020;-82
2022/05/23 02:34:03;;;;;;;5.57;3.97;;;;;;;14.90;84.86;99505.34;5062715;28;20027;-82
2022/05/23 02:36:42;;;;;;;6.97;3.78;;;;;;;14.99;84.18;99514.91;5056643;28;20044;-82
2022/05/23 02:39:08;;;;;;;4.20;3.20;;;;;;;15.08;82.89;99512.03;5038569;28;20109;-82
2022/05/23 02:41:34;;;;;;;5.97;3.55;;;;;;;15.16;78.91;99504.81;5046061;28;20499;-82
2022/05/23 02:44:01;;;;;;;5.82;3.15;;;;;;;15.25;76.82;99496.31;5077240;28;20043;-82
2022/05/23 02:46:28;;;;;;;6.25;3.08;;;;;;;15.38;74.23;99500.38;5067676;28;20044;-82
2022/05/23 02:49:00;;;;;;;4.28;3.22;;;;;;;15.48;72.04;99489.88;5057463;28;20403;-82
2022/05/23 02:51:26;;;;;;;4.72;3.20;;;;;;;15.52;74.80;99498.84;5068554;28;20035;-82
2022/05/23 02:53:54;;;;;;;6.25;3.22;;;;;;;15.45;77.36;99502.00;5078888;28;20040;-82
2022/05/23 02:56:25;;;;;;;5.55;3.30;;;;;;;15.41;80.85;99493.81;5070836;28;20044;-82
2022/05/23 02:58:51;;;;;;;8.02;3.78;;;;;;;15.33;82.59;99489.09;5074727;28;20510;-82
2022/05/23 03:01:17;;;;;;;4.93;3.75;;;;;;;15.24;83.69;99489.19;5073901;28;20024;-82
2022/05/23 03:03:42;;;;;;;4.32;3.30;;;;;;;15.22;83.52;99481.28;5071549;28;20021;-82
2022/05/23 03:06:08;;;;;;;5.32;3.88;;;;;;;15.20;84.05;99488.63;5078422;28;20039;-82
2022/05/23 03:08:35;;;;;;;5.20;3.80;;;;;;;15.11;83.85;99480.34;5076520;28;20024;-82
2022/05/23 03:11:04;;;;;;;6.63;3.83;;;;;;;15.01;84.05;99474.06;5058067;28;20036;-82
2022/05/23 03:13:30;;;;;;;7.57;3.70;;;;;;;14.99;83.74;99464.63;5075982;28;20090;-82
2022/05/23 03:15:56;;;;;;;4.65;3.45;;;;;;;15.02;83.17;99455.28;5062294;28;20509;-82
2022/05/23 03:18:24;;;;;;;4.80;3.50;;;;;;;14.98;81.97;99449.91;5087159;28;20036;-82
2022/05/23 03:20:56;;;;;;;4.93;3.33;;;;;;;15.06;81.18;99439.88;5075039;28;20032;-82
2022/05/23 03:26:58;;;;;;;4.80;3.70;;;;;;;15.20;80.08;99441.13;5062450;28;20036;-82
2022/05/23 03:29:00;;;;;;;4.93;3.30;;;;;;;15.18;78.47;99446.41;5054187;28;20037;-82
2022/05/23 03:31:27;;;;;;;5.22;3.58;;;;;;;15.22;77.91;99452.59;5049596;28;20033;-82
2022/05/23 03:33:53;;;;;;;5.97;3.47;;;;;;;15.27;76.48;99454.72;5063074;28;20035;-82
2022/05/23 03:36:20;;;;;;;4.90;3.35;;;;;;;15.32;74.65;99462.41;5091218;28;20430;-82
2022/05/23 03:38:46;;;;;;;6.57;3.40;;;;;;;15.33;72.89;99455.56;5080841;28;20067;-82
2022/05/23 03:41:12;;;;;;;4.82;3.22;;;;;;;15.37;76.58;99464.50;5082267;28;20028;-82
2022/05/23 03:43:38;;;;;;;4.30;3.50;;;;;;;15.29;77.21;99469.72;5084137;28;20032;-82
2022/05/23 03:46:06;;;;;;;4.13;3.20;;;;;;;15.18;76.95;99463.94;5080378;28;20069;-82
2022/05/23 03:48:32;;;;;;;5.55;3.10;;;;;;;15.12;75.32;99470.72;5091044;28;20038;-82
2022/05/23 03:50:58;;;;;;;5.32;2.97;;;;;;;15.14;72.63;99468.97;5091377;28;20067;-83
2022/05/23 03:53:26;;;;;;;5.20;3.00;;;;;;;15.23;70.80;99479.28;5081064;28;20028;-83
2022/05/23 03:55:57;;;;;;;4.45;3.05;;;;;;;15.28;68.28;99475.81;5074294;28;20143;-82
2022/05/23 03:58:24;;;;;;;6.70;3.10;;;;;;;15.40;66.54;99480.34;5059057;28;20032;-82
2022/05/23 04:01:30;;;;;;;5.35;2.60;;;;;;;15.48;66.41;99475.13;5082260;28;20487;-82
2022/05/23 04:04:28;;;;;;;4.68;2.85;;;;;;;15.53;68.84;99478.00;5058016;28;20373;-82
2022/05/23 04:07:13;;;;;;;5.47;3.28;;;;;;;15.59;71.73;99486.50;5092550;28;20086;-82
2022/05/23 04:09:56;;;;;;;6.43;3.50;;;;;;;15.44;75.42;99489.28;5075238;28;20495;-82
2022/05/23 04:12:26;;;;;;;4.03;3.22;;;;;;;15.39;73.20;99478.78;5061066;28;21159;-82
2022/05/23 04:14:51;;;;;;;3.78;3.30;;;;;;;15.34;77.42;99476.66;5088949;28;20028;-82
2022/05/23 04:17:17;;;;;;;4.55;3.33;;;;;;;15.31;78.00;99477.63;5090517;28;20036;-82
2022/05/23 04:19:45;;;;;;;6.15;3.40;;;;;;;15.30;78.25;99481.66;5054607;28;20487;-82
2022/05/23 04:22:19;;;;;;;4.88;3.60;;;;;;;15.33;77.58;99486.28;5072943;28;20036;-82
2022/05/23 04:24:57;;;;;;;7.40;3.15;;;;;;;15.37;78.06;99481.28;5060195;28;20036;-82
2022/05/23 04:27:23;;;;;;;5.03;3.47;;;;;;;15.39;77.50;99478.78;5092329;28;20043;-82
2022/05/23 04:29:48;;;;;;;3.78;2.97;;;;;;;15.46;76.07;99478.38;5073988;28;20115;-82
2022/05/23 04:35:13;;;;;;;4.65;3.17;;;;;;;15.58;75.28;99473.75;5075984;28;20040;-82
2022/05/23 04:37:48;;;;;;;5.95;2.90;;;;;;;15.69;74.19;99490.72;5082667;28;20024;-82
2022/05/23 04:40:22;;;;;;;4.47;3.42;;;;;;;15.75;72.18;99500.75;5065895;28;20024;-82
2022/05/23 04:42:48;;;;;;;4.45;3.20;;;;;;;15.88;70.70;99510.84;5074618;28;20025;-82
2022/05/23 04:45:14;;;;;;;7.47;3.15;;;;;;;15.96;68.33;99509.19;5074691;28;20042;-82
2022/05/23 04:50:33;;;;;;;4.78;3.40;;;;;;;16.13;69.64;99510.97;5071745;28;20174;-82
2022/05/23 04:53:04;;;;;;;5.68;3.30;;;;;;;16.12;73.93;99509.41;5071873;28;20028;-82
2022/05/23 04:55:35;;;;;;;6.38;3.05;;;;;;;16.09;75.04;99501.22;5072109;28;20032;-82
2022/05/23 04:58:04;;;;;;;3.78;2.85;;;;;;;16.16;74.60;99512.00;5090289;28;20399;-82
2022/05/23 05:00:30;;;;;;;5.80;3.55;;;;;;;16.20;74.65;99512.56;5089512;28;20016;-82
2022/05/23 05:03:01;;;;;;;13.23;7.72;;;;;;;16.25;74.60;99509.09;5067714;28;20491;-82
2022/05/23 05:05:40;;;;;;;9.80;4.32;;;;;;;16.41;74.09;99516.94;5073328;28;20041;-82
2022/05/23 05:08:06;;;;;;;6.70;3.80;;;;;;;16.49;73.32;99518.06;5061588;28;20036;-82
2022/05/23 05:10:32;;;;;;;5.70;3.33;;;;;;;16.62;70.99;99526.13;5055350;28;20036;-82
2022/05/23 05:13:01;;;;;;;5.18;3.10;;;;;;;16.65;68.55;99520.31;5072426;28;20082;-82
2022/05/23 05:15:29;;;;;;;6.63;4.55;;;;;;;16.72;66.05;99521.91;5072133;28;20062;-82
2022/05/23 05:17:56;;;;;;;4.65;2.95;;;;;;;16.73;64.81;99521.44;5057641;28;20111;-81
2022/05/23 05:20:24;;;;;;;4.75;2.80;;;;;;;16.71;65.27;99507.13;5073520;28;20020;-82
2022/05/23 05:22:59;;;;;;;8.10;3.30;;;;;;;16.89;66.54;99522.09;5085969;28;20043;-82
2022/05/23 05:25:41;;;;;;;7.50;3.60;;;;;;;16.97;67.47;99517.59;5090209;28;20032;-84
2022/05/23 05:28:11;;;;;;;5.43;3.25;;;;;;;17.04;67.24;99517.94;5069965;28;20111;-84
2022/05/23 05:30:41;;;;;;;8.35;3.08;;;;;;;17.14;67.51;99524.94;5089092;28;20178;-83
2022/05/23 05:33:18;;;;;;;7.80;3.50;;;;;;;17.16;67.36;99516.00;5089362;28;20140;-82
2022/05/23 05:35:56;;;;;;;4.53;2.92;;;;;;;17.26;66.23;99520.22;5052768;28;20043;-82
2022/05/23 05:38:32;;;;;;;7.13;3.42;;;;;;;17.36;66.50;99517.97;5059049;28;20028;-82
2022/05/23 05:41:03;;;;;;;5.25;3.08;;;;;;;17.42;66.00;99511.19;5081601;28;20063;-84
2022/05/23 05:43:36;;;;;;;6.95;3.30;;;;;;;17.62;65.19;99513.94;5090382;28;20046;-84
2022/05/23 05:46:14;;;;;;;6.50;3.20;;;;;;;17.70;63.04;99512.19;5055751;28;20091;-84
2022/05/23 05:48:57;;;;;;;5.05;3.08;;;;;;;17.79;62.41;99511.25;5069891;28;20115;-87
2022/05/23 05:51:24;;;;;;;5.32;2.92;;;;;;;18.04;61.81;99518.81;5059174;28;20709;-87
2022/05/23 05:54:12;;;;;;;6.90;2.88;;;;;;;18.21;62.14;99516.09;5082788;28;20066;-86
2022/05/23 05:56:45;;;;;;;5.65;2.55;;;;;;;18.06;60.00;99521.13;5064549;28;20042;-87
2022/05/23 05:59:12;;;;;;;3.90;2.28;;;;;;;17.96;58.74;99525.38;5071380;28;20032;-87
2022/05/23 06:01:42;;;;;;;6.75;2.60;;;;;;;17.99;59.62;99524.41;5089264;28;20055;-86
2022/05/23 06:04:08;;;;;;;6.50;2.67;;;;;;;17.95;60.66;99524.63;5053769;28;20415;-87
2022/05/23 06:12:31;;;;;;;4.40;2.80;;;;;;;17.70;63.71;99529.03;5072254;28;20030;-87
2022/05/23 06:15:17;;;;;;;3.53;2.50;;;;;;;17.68;62.43;99534.34;5075680;28;20067;-86
2022/05/23 06:17:43;;;;;;;3.50;2.28;;;;;;;17.71;60.94;99541.78;5072950;28;20491;-87
2022/05/23 06:20:11;;;;;;;5.97;2.90;;;;;;;17.66;61.79;99550.94;5068244;28;20032;-86
2022/05/23 06:22:39;;;;;;;3.72;2.65;;;;;;;17.66;60.88;99550.94;5056471;28;20035;-85
2022/05/23 06:25:09;;;;;;;4.40;2.45;;;;;;;17.51;61.68;99543.88;5052962;28;20036;-86
2022/05/23 06:27:37;;;;;;;5.28;2.75;;;;;;;17.52;61.88;99543.38;5057996;28;20040;-86
2022/05/23 06:30:24;;;;;;;8.23;2.58;;;;;;;17.53;61.84;99542.13;5082225;28;20527;-86
2022/05/23 06:33:08;;;;;;;6.88;3.03;;;;;;;17.59;62.08;99528.19;5061537;28;20043;-87
2022/05/23 06:35:55;;;;;;;5.78;2.97;;;;;;;17.59;61.74;99528.91;5069536;28;20036;-87
2022/05/23 06:38:25;;;;;;;4.82;2.60;;;;;;;17.58;60.66;99533.00;5052379;28;20041;-85
2022/05/23 06:41:11;;;;;;;4.97;2.58;;;;;;;17.59;59.12;99540.13;5049282;28;20099;-86
2022/05/23 06:43:52;;;;;;;6.03;2.60;;;;;;;17.63;59.78;99546.28;5070903;28;20493;-86
2022/05/23 06:46:21;;;;;;;4.72;2.92;;;;;;;17.60;59.90;99533.28;5070616;28;20447;-86
2022/05/23 06:48:49;;;;;;;5.55;2.40;;;;;;;17.59;59.53;99514.91;5070769;28;20044;-86
2022/05/23 06:51:49;;;;;;;7.40;2.80;;;;;;;17.67;60.06;99495.59;5066383;28;20033;-86
2022/05/23 06:54:20;;;;;;;4.70;2.47;;;;;;;17.87;60.16;99503.91;5036539;28;20127;-86
2022/05/23 06:57:11;;;;;;;6.72;2.95;;;;;;;18.10;59.32;99502.78;5080113;28;20044;-88
2022/05/23 06:59:52;;;;;;;5.25;2.38;;;;;;;18.23;59.14;99493.91;5052284;28;20038;-86
2022/05/23 07:02:18;;;;;;;3.97;2.80;;;;;;;18.36;58.78;99519.50;5072357;28;20040;-85
2022/05/23 07:14:10;;;;;;;3.85;2.53;;;;;;;18.44;56.48;99523.34;5094083;28;20125;-86
2022/05/23 07:16:44;;;;;;;5.22;2.35;;;;;;;18.40;56.61;99520.03;5076309;28;20135;-86
2022/05/23 07:19:11;;;;;;;6.72;2.88;;;;;;;18.45;57.12;99519.28;5076423;28;20526;-86
2022/05/23 07:21:48;;;;;;;4.10;2.60;;;;;;;18.61;56.84;99518.63;5071792;28;20089;-86
2022/05/23 07:24:17;;;;;;;5.47;2.63;;;;;;;18.48;56.65;99518.28;5078708;28;20040;-86
2022/05/23 07:26:54;;;;;;;4.55;2.35;;;;;;;18.47;56.43;99524.41;5072096;28;20561;-86
2022/05/23 07:29:24;;;;;;;3.40;2.40;;;;;;;18.24;56.90;99529.13;5056369;28;20222;-86
2022/05/23 07:31:52;;;;;;;4.55;2.60;;;;;;;18.27;57.12;99518.94;5056511;28;20035;-86
2022/05/23 07:34:18;;;;;;;4.68;2.50;;;;;;;18.22;57.02;99528.09;5072870;28;20042;-86
2022/05/23 07:37:01;;;;;;;6.20;2.97;;;;;;;18.18;57.68;99520.69;5039450;28;20543;-86
2022/05/23 07:39:27;;;;;;;5.45;2.58;;;;;;;18.20;58.22;99522.97;5093447;28;20036;-86
2022/05/23 07:41:58;;;;;;;4.70;2.45;;;;;;;18.22;58.46;99520.44;5076398;28;20391;-87
2022/05/23 07:44:26;;;;;;;6.32;2.70;;;;;;;18.35;59.02;99526.41;5076056;28;20043;-87
2022/05/23 07:46:58;;;;;;;4.63;2.60;;;;;;;18.53;58.46;99525.22;5076654;28;20127;-86
2022/05/23 07:49:29;;;;;;;3.72;2.50;;;;;;;18.83;57.66;99531.22;5041584;28;20511;-87
2022/05/23 07:52:08;;;;;;;5.78;2.70;;;;;;;18.96;56.67;99517.47;5076197;28;20032;-81
2022/05/23 08:00:31;;;;;;;4.32;2.60;;;;;;;18.99;55.37;99522.84;5075953;28;20024;-81
2022/05/23 08:00:37;;;;;;;4.95;2.63;;;;;;;19.01;55.04;99516.69;5075442;28;20032;-84
2022/05/23 08:03:17;;;;;;;4.57;2.60;;;;;;;19.15;56.29;99524.16;5062464;28;20032;-84
2022/05/23 08:05:48;;;;;;;4.28;2.70;;;;;;;19.20;54.71;99531.84;5075500;28;20614;-84
2022/05/23 08:08:18;;;;;;;4.75;2.58;;;;;;;19.21;54.64;99522.09;5055876;28;20040;-84
2022/05/23 08:10:49;;;;;;;4.18;2.75;;;;;;;19.31;54.40;99529.03;5055676;28;20032;-84
2022/05/23 08:13:16;;;;;;;5.88;3.00;;;;;;;19.39;54.55;99518.81;5055885;28;20036;-84
2022/05/23 08:15:42;;;;;;;4.63;2.55;;;;;;;19.21;53.48;99524.91;5071140;28;20391;-83
2022/05/23 08:18:12;;;;;;;4.07;2.83;;;;;;;19.25;54.25;99528.25;5072195;28;20028;-83
2022/05/23 08:20:46;;;;;;;5.28;3.15;;;;;;;19.27;54.60;99525.72;5087469;28;20036;-83
2022/05/23 08:23:12;;;;;;;5.30;2.63;;;;;;;19.66;55.78;99519.34;5054417;28;20466;-83
2022/05/23 08:25:43;;;;;;;4.47;3.00;;;;;;;20.20;52.36;99514.94;5078818;28;20095;-84
2022/05/23 08:28:09;;;;;;;6.47;3.03;;;;;;;20.67;51.74;99515.81;5112995;28;20039;-84
2022/05/23 08:30:35;;;;;;;4.47;2.60;;;;;;;20.42;52.19;99520.53;5078446;28;20033;-84
2022/05/23 08:33:20;;;;;;;4.50;2.75;;;;;;;20.39;50.15;99518.75;5080842;28;20510;-84
2022/05/23 08:35:48;;;;;;;5.63;2.95;;;;;;;20.63;51.69;99518.16;5095102;28;20390;-84
2022/05/23 08:38:18;;;;;;;7.55;2.90;;;;;;;20.79;50.23;99525.00;5095720;28;20032;-84
2022/05/23 08:41:13;;;;;;;4.97;3.13;;;;;;;20.54;50.04;99526.16;5094798;28;20027;-84
2022/05/23 08:44:02;;;;;;;5.97;3.00;;;;;;;20.39;50.30;99515.16;5094904;28;20036;-84
2022/05/23 08:46:44;;;;;;;6.57;3.08;;;;;;;20.48;48.15;99512.84;5078417;28;20062;-84
2022/05/23 08:49:21;;;;;;;5.25;2.90;;;;;;;20.29;48.20;99525.19;5077763;28;20039;-84
2022/05/23 08:52:06;;;;;;;5.90;3.03;;;;;;;20.26;45.77;99520.56;5078824;28;20044;-84
2022/05/23 08:54:40;;;;;;;7.32;3.35;;;;;;;20.36;45.60;99519.03;5112937;28;20053;-84
2022/05/23 08:57:55;;;;;;;6.78;3.00;;;;;;;20.11;45.75;99518.03;5050268;28;20041;-84
2022/05/23 09:00:42;;;;;;;5.90;3.15;;;;;;;20.46;45.73;99509.75;5033534;28;20581;-84
2022/05/23 09:03:22;;;;;;;6.03;3.33;;;;;;;20.65;44.44;99509.19;5064483;28;20082;-84
2022/05/23 09:06:05;;;;;;;5.78;3.05;;;;;;;20.78;44.98;99506.56;5078427;28;20039;-84
2022/05/23 09:08:49;;;;;;;5.43;3.47;;;;;;;20.56;45.19;99501.03;5095435;28;20447;-84
2022/05/23 09:11:17;;;;;;;;;;;;;;;20.69;45.98;99504.03;5113890;28;20399;-84
2022/05/23 09:13:44;;;;;;;9.18;3.50;;;;;;;20.24;44.72;99498.56;5112500;28;19919;-84
2022/05/23 09:16:12;;;;;;;5.90;3.20;;;;;;;19.99;46.64;99505.25;5049455;28;20035;-83
2022/05/23 09:18:58;;;;;;;5.70;3.22;;;;;;;19.97;46.38;99502.19;5085796;28;20031;-84
2022/05/23 09:22:12;;;;;;;5.68;3.20;;;;;;;20.02;48.04;99507.81;5080750;28;20764;-84
2022/05/23 09:24:11;;;;;;;5.28;3.15;;;;;;;20.33;47.34;99508.78;5077616;28;20116;-84
2022/05/23 09:26:37;;;;;;;4.53;3.28;;;;;;;20.52;46.01;99504.13;5055980;28;20077;-84
2022/05/23 09:29:04;;;;;;;5.88;3.10;;;;;;;20.44;45.63;99509.53;5072438;28;20040;-84
2022/05/23 09:31:59;;;;;;;4.13;3.10;;;;;;;20.66;45.80;99507.91;5070820;28;20029;-85
2022/05/23 09:34:27;;;;;;;4.75;3.55;;;;;;;20.69;45.54;99516.09;5054151;28;20115;-84
2022/05/23 09:36:53;;;;;;;4.40;3.15;;;;;;;20.63;44.94;99501.25;5072079;28;20042;-84
2022/05/23 09:39:23;;;;;;;5.18;3.10;;;;;;;20.62;45.96;99505.38;5080407;28;20059;-84
2022/05/23 09:47:54;;;;;;;4.60;3.05;;;;;;;20.48;45.36;99503.63;5053189;28;20052;-84
2022/05/23 09:50:26;;;;;;;;;;;;;;;20.39;45.79;99493.41;5056659;28;20042;-85
2022/05/23 09:52:52;;;;;;;6.15;3.00;;;;;;;20.67;44.96;99472.78;5071619;28;19924;-81
2022/05/23 09:55:31;;;;;;;5.10;2.95;;;;;;;21.19;44.00;99473.53;5071540;28;20043;-85
2022/05/23 09:58:11;;;;;;;5.07;2.75;;;;;;;21.54;43.62;99474.81;5054328;28;20583;-86
2022/05/23 10:00:39;;;;;;;6.00;2.95;;;;;;;21.48;43.82;99471.25;5070007;28;20037;-86
2022/05/23 10:03:19;;;;;;;4.40;2.92;;;;;;;21.92;42.60;99470.88;5070416;28;20492;-85
2022/05/23 10:05:53;;;;;;;4.63;2.80;;;;;;;21.90;43.47;99467.78;5036577;28;20132;-85
2022/05/23 10:08:33;;;;;;;5.28;2.75;;;;;;;22.15;42.09;99472.19;5070078;28;20093;-85
2022/05/23 10:11:01;;;;;;;4.93;2.50;;;;;;;22.19;39.90;99455.69;5053323;28;20599;-85
2022/05/23 10:13:40;;;;;;;6.10;2.88;;;;;;;22.04;41.10;99455.34;5053954;28;20028;-85
2022/05/23 10:16:09;;;;;;;6.05;2.70;;;;;;;22.18;42.62;99464.69;5036550;28;20044;-85
2022/05/23 10:18:46;;;;;;;4.20;2.50;;;;;;;21.92;41.48;99470.13;5053327;28;20017;-85
2022/05/23 10:21:38;;;;;;;3.92;2.90;;;;;;;21.52;43.46;99485.84;5053997;28;20060;-85
2022/05/23 10:24:18;;;;;;;4.63;2.95;;;;;;;21.25;44.74;99471.44;5069769;28;20048;-85
2022/05/23 10:26:59;;;;;;;4.82;2.90;;;;;;;21.40;44.09;99466.19;5070892;28;20043;-85
2022/05/23 10:29:55;;;;;;;5.80;3.00;;;;;;;21.65;44.55;99466.22;5036986;28;20102;-85
2022/05/23 10:32:48;;;;;;;4.40;2.67;;;;;;;21.52;43.09;99471.72;5036789;28;20028;-85
2022/05/23 10:35:24;;;;;;;6.73;3.10;;;;;;;21.72;44.00;99457.19;5053925;28;20089;-85
2022/05/23 10:37:53;;;;;;;5.22;3.10;;;;;;;21.72;43.95;99462.81;5052743;28;20036;-85
2022/05/23 10:43:10;;;;;;;6.20;3.15;;;;;;;21.88;43.64;99450.59;5053022;28;20040;-82
2022/05/23 10:45:51;;;;;;;7.03;2.95;;;;;;;21.33;43.46;99461.13;5052810;28;20047;-82
2022/05/23 10:48:54;;;;;;;6.00;2.65;;;;;;;21.66;43.85;99459.31;5070877;28;20040;-82
2022/05/23 10:51:42;;;;;;;4.82;2.72;;;;;;;21.45;42.49;99456.16;5053395;28;20186;-82
2022/05/23 10:54:30;;;;;;;5.63;2.80;;;;;;;21.24;44.07;99450.16;5036729;28;20077;-82
2022/05/23 10:57:12;;;;;;;3.50;2.75;;;;;;;21.60;44.34;99444.47;5053063;28;20037;-82
2022/05/23 10:59:57;;;;;;;4.60;2.88;;;;;;;21.52;45.03;99444.28;5071864;28;20036;-82
2022/05/23 11:02:42;;;;;;;3.90;2.67;;;;;;;21.85;43.34;99440.38;5071861;28;20039;-82
2022/05/23 11:05:32;;;;;;;5.85;2.60;;;;;;;21.84;42.05;99444.47;5088923;28;20110;-82
2022/05/23 11:08:07;;;;;;;2.92;2.30;;;;;;;22.17;42.90;99435.69;5072977;28;20859;-82
2022/05/23 11:10:40;;;;;;;5.00;2.75;;;;;;;22.55;41.40;99435.72;5083693;28;20500;-83
2022/05/23 11:13:25;;;;;;;6.57;2.88;;;;;;;22.55;41.62;99444.22;5085827;28;20036;-83
2022/05/23 11:16:10;;;;;;;4.45;2.75;;;;;;;22.64;41.18;99432.53;5088951;28;20096;-83
2022/05/23 11:18:59;;;;;;;5.47;2.72;;;;;;;22.71;41.55;99432.72;5080244;28;20462;-83
2022/05/23 11:22:07;;;;;;;5.63;2.72;;;;;;;22.48;38.80;99434.28;5071384;28;20418;-84
2022/05/23 11:24:50;;;;;;;6.30;2.72;;;;;;;22.17;40.48;99430.03;5030564;28;20127;-83
2022/05/23 11:35:55;;;;;;;4.90;2.45;;;;;;;22.44;40.21;99407.63;5066699;28;20036;-83
2022/05/23 11:38:21;;;;;;;5.20;2.53;;;;;;;22.81;40.72;99401.97;5063764;28;20127;-83
2022/05/23 11:41:00;;;;;;;5.28;2.70;;;;;;;23.09;40.48;99410.78;5080252;28;20027;-83
2022/05/23 11:43:30;;;;;;;3.35;2.40;;;;;;;23.22;40.03;99391.03;5080457;28;20031;-81
2022/05/23 11:46:04;;;;;;;5.75;2.80;;;;;;;23.27;38.60;99395.06;5046983;28;20444;-81
2022/05/23 11:48:40;;;;;;;5.43;2.97;;;;;;;23.24;40.21;99405.41;5064422;28;20044;-83
2022/05/23 11:51:24;;;;;;;5.70;2.58;;;;;;;23.33;39.24;99400.66;5056401;28;20471;-83
2022/05/23 11:53:59;;;;;;;5.68;3.00;;;;;;;23.19;39.06;99397.78;5074140;28;20103;-87
2022/05/23 11:57:13;;;;;;;5.05;2.80;;;;;;;23.18;38.62;99384.94;5094802;28;20464;-88
2022/05/23 11:59:39;;;;;;;;;;;;;;;22.97;39.15;99386.06;5091022;28;20503;-89
2022/05/23 12:02:11;;;;;;;7.65;2.50;;;;;;;23.03;39.32;99384.66;5092207;28;20398;-89
2022/05/23 12:05:08;;;;;;;3.67;2.47;;;;;;;22.97;39.45;99381.16;5091270;28;20063;-88
2022/05/23 12:07:34;;;;;;;4.55;2.50;;;;;;;22.91;40.15;99377.66;5081793;28;20048;-88
2022/05/23 12:10:25;;;;;;;5.05;2.55;;;;;;;22.95;38.83;99383.75;5093799;28;20040;-89
2022/05/23 12:13:28;;;;;;;6.53;2.83;;;;;;;23.03;40.16;99379.00;5072336;28;20123;-89
2022/05/23 12:15:56;;;;;;;4.93;2.60;;;;;;;23.15;38.65;99383.19;5090671;28;20040;-88
2022/05/23 12:18:24;;;;;;;5.60;2.63;;;;;;;22.95;39.38;99372.44;5057336;28;20035;-88
2022/05/23 12:20:55;;;;;;;3.38;2.50;;;;;;;22.68;40.57;99368.75;5091985;28;20040;-88
2022/05/23 12:23:41;;;;;;;4.70;2.40;;;;;;;22.76;39.25;99371.72;5058127;28;20042;-88
2022/05/23 12:26:07;;;;;;;5.45;2.75;;;;;;;22.76;38.83;99357.59;5073443;28;20039;-88
2022/05/23 12:28:57;;;;;;;4.80;2.40;;;;;;;22.81;39.03;99367.28;5091713;28;20558;-89
2022/05/23 12:31:27;;;;;;;5.97;2.60;;;;;;;23.02;39.70;99354.84;5073099;28;20033;-88
2022/05/23 12:34:03;;;;;;;4.10;2.33;;;;;;;23.14;38.94;99367.50;5073399;28;20070;-88
2022/05/23 12:36:34;;;;;;;4.85;2.53;;;;;;;23.14;39.47;99350.53;5091845;28;20028;-89
2022/05/23 12:39:07;;;;;;;6.03;2.40;;;;;;;23.23;39.65;99352.19;5056726;28;20123;-88
2022/05/23 12:41:50;;;;;;;5.53;2.60;;;;;;;22.66;39.14;99345.13;5091713;28;20043;-87
2022/05/23 12:44:44;;;;;;;4.82;2.70;;;;;;;22.42;39.90;99340.31;5074367;28;20286;-88
2022/05/23 12:47:22;;;;;;;5.20;2.78;;;;;;;22.10;39.56;99337.44;5057344;28;20641;-88
2022/05/23 12:50:23;;;;;;;6.15;2.63;;;;;;;22.08;39.90;99319.50;5091846;28;20032;-88
2022/05/23 12:53:12;;;;;;;6.65;2.40;;;;;;;22.16;39.97;99320.41;5057019;28;20035;-88
2022/05/23 12:56:14;;;;;;;4.75;2.40;;;;;;;22.38;39.78;99322.16;5091716;28;20063;-89
2022/05/23 12:58:42;;;;;;;6.55;2.60;;;;;;;22.50;39.73;99326.34;5082665;28;20040;-89